Time;durP1;ratioP1;P1;durP2;ratioP2;P2;SDS_P1;SDS_P2;PMS_P1;PMS_P2;Temp;Humidity;BMP_temperature;BMP_pressure;BME280_temperature;BME280_humidity;BME280_pressure;Samples;Min_cycle;Max_cycle;Signal;HPM_P1;HPM_P2
2021/09/23 00:00:17;;;;;;;18.55;14.50;;;12.80;99.90;;;;;;5111804;28;20023;-37
2021/09/23 00:05:16;;;;;;;20.30;16.23;;;12.80;99.90;;;;;;5112460;28;20020;-37
2021/09/23 00:07:46;;;;;;;21.92;16.23;;;12.80;99.90;;;;;;5111011;28;20026;-37
2021/09/23 00:10:15;;;;;;;20.92;16.17;;;12.80;99.90;;;;;;5112176;28;20080;-36
2021/09/23 00:12:41;;;;;;;22.70;16.83;;;12.80;99.90;;;;;;5111553;28;20118;-37
2021/09/23 00:15:11;;;;;;;21.75;17.05;;;12.80;99.90;;;;;;5112276;28;20027;-39
2021/09/23 00:17:37;;;;;;;21.08;15.73;;;12.70;99.90;;;;;;5110872;28;20130;-39
2021/09/23 00:20:04;;;;;;;21.05;16.42;;;12.70;99.90;;;;;;5112397;28;20043;-40
2021/09/23 00:22:29;;;;;;;21.20;16.13;;;12.70;99.90;;;;;;5110693;28;20023;-39
2021/09/23 00:24:55;;;;;;;21.10;16.15;;;12.70;99.90;;;;;;5111676;28;20054;-40
2021/09/23 00:27:27;;;;;;;20.30;15.75;;;12.70;99.90;;;;;;5110680;28;20320;-37
2021/09/23 00:29:52;;;;;;;19.13;15.15;;;12.70;99.90;;;;;;5111229;28;20379;-40
2021/09/23 00:32:17;;;;;;;19.05;15.13;;;12.70;99.90;;;;;;5110627;28;20082;-40
2021/09/23 00:34:44;;;;;;;18.73;15.20;;;12.60;99.90;;;;;;5111179;28;20019;-38
2021/09/23 00:37:10;;;;;;;20.27;14.68;;;12.60;99.90;;;;;;5111442;28;20379;-37
2021/09/23 00:39:35;;;;;;;19.77;13.45;;;12.60;99.90;;;;;;5110491;28;20486;-37
2021/09/23 00:42:03;;;;;;;19.25;14.52;;;12.60;99.90;;;;;;5110934;28;20055;-40
2021/09/23 00:44:29;;;;;;;19.35;13.60;;;12.60;99.90;;;;;;5110698;28;20020;-36
2021/09/23 00:46:54;;;;;;;18.10;14.38;;;12.60;99.90;;;;;;5111403;28;20111;-38
2021/09/23 00:49:20;;;;;;;17.58;13.90;;;12.60;99.90;;;;;;5109805;28;20030;-38
2021/09/23 00:51:46;;;;;;;16.27;13.07;;;12.60;99.90;;;;;;5111509;28;20038;-33
2021/09/23 00:54:12;;;;;;;17.92;13.90;;;12.60;99.90;;;;;;5110479;28;20027;-35
2021/09/23 00:56:38;;;;;;;20.42;14.02;;;12.60;99.90;;;;;;5109906;28;20034;-38
2021/09/23 00:59:13;;;;;;;18.60;14.50;;;12.60;99.90;;;;;;5111351;28;20029;-32
2021/09/23 01:01:45;;;;;;;18.67;13.70;;;12.60;99.90;;;;;;5110827;28;20058;-36
2021/09/23 01:04:12;;;;;;;18.92;14.77;;;12.60;99.90;;;;;;5110294;28;20463;-35
2021/09/23 01:06:38;;;;;;;18.42;14.02;;;12.60;99.90;;;;;;5109724;28;20023;-37
2021/09/23 01:09:03;;;;;;;19.05;15.30;;;12.60;99.90;;;;;;5110466;28;20031;-37
2021/09/23 01:11:29;;;;;;;19.25;14.25;;;12.60;99.90;;;;;;5109890;28;20036;-35
2021/09/23 01:13:55;;;;;;;18.88;13.70;;;12.60;99.90;;;;;;5110141;28;20051;-38
2021/09/23 01:16:21;;;;;;;18.80;14.65;;;12.60;99.90;;;;;;5109996;28;20043;-37
2021/09/23 01:18:47;;;;;;;18.30;14.77;;;12.50;99.90;;;;;;5109811;28;20378;-34
2021/09/23 01:21:12;;;;;;;18.70;14.18;;;12.50;99.90;;;;;;5110468;28;20451;-38
2021/09/23 01:23:40;;;;;;;21.40;15.75;;;12.50;99.90;;;;;;5109803;28;20036;-38
2021/09/23 01:26:10;;;;;;;20.27;14.93;;;12.50;99.90;;;;;;5110752;28;20073;-37
2021/09/23 01:28:39;;;;;;;20.27;15.52;;;12.50;99.90;;;;;;5109826;28;20088;-37
2021/09/23 01:31:04;;;;;;;21.45;15.10;;;12.40;99.90;;;;;;5109175;28;20114;-36
2021/09/23 01:33:30;;;;;;;24.08;15.50;;;12.40;99.90;;;;;;5110365;28;20115;-37
2021/09/23 01:35:55;;;;;;;20.35;15.63;;;12.40;99.90;;;;;;5110211;28;20031;-38
2021/09/23 01:38:24;;;;;;;22.70;16.13;;;12.40;99.90;;;;;;5109547;28;20072;-38
2021/09/23 01:40:50;;;;;;;19.65;13.48;;;12.30;99.90;;;;;;5110307;28;20386;-37
2021/09/23 01:43:21;;;;;;;24.98;16.52;;;12.40;99.90;;;;;;5109759;28;20020;-38
2021/09/23 01:45:47;;;;;;;24.03;15.67;;;12.30;99.90;;;;;;5109451;28;20016;-36
2021/09/23 01:48:13;;;;;;;20.98;14.60;;;12.30;99.90;;;;;;5110562;28;20748;-36
2021/09/23 01:50:38;;;;;;;25.13;15.13;;;12.30;99.90;;;;;;5109537;28;20016;-38
2021/09/23 01:53:04;;;;;;;24.27;15.07;;;12.30;99.90;;;;;;5110017;28;20395;-35
2021/09/23 01:55:29;;;;;;;20.42;13.18;;;12.30;99.90;;;;;;5109590;28;20106;-36
2021/09/23 01:57:55;;;;;;;23.02;14.20;;;12.30;99.90;;;;;;5110438;28;20487;-39
2021/09/23 02:00:20;;;;;;;23.25;15.45;;;12.30;99.90;;;;;;5108899;28;20512;-37
2021/09/23 02:02:48;;;;;;;23.92;14.77;;;12.20;99.90;;;;;;5110430;28;20062;-35
2021/09/23 02:05:14;;;;;;;21.85;14.88;;;12.20;99.90;;;;;;5109324;28;20028;-37
2021/09/23 02:07:39;;;;;;;26.85;15.85;;;12.20;99.90;;;;;;5108843;28;20024;-40
2021/09/23 02:10:08;;;;;;;27.08;16.35;;;12.20;99.90;;;;;;5110420;28;20028;-38
2021/09/23 02:12:34;;;;;;;24.27;14.95;;;12.20;99.90;;;;;;5106975;28;20032;-38
2021/09/23 02:14:59;;;;;;;23.98;14.80;;;12.20;99.90;;;;;;5109439;28;20375;-38
2021/09/23 02:17:25;;;;;;;22.13;14.07;;;12.20;99.90;;;;;;5108827;28;20066;-36
2021/09/23 02:19:51;;;;;;;21.90;14.82;;;12.10;99.90;;;;;;5109488;28;20095;-39
2021/09/23 02:22:17;;;;;;;23.20;15.60;;;12.10;99.90;;;;;;5112553;28;20160;-36
2021/09/23 02:24:43;;;;;;;26.00;15.85;;;12.10;99.90;;;;;;5114761;28;20015;-39
2021/09/23 02:27:09;;;;;;;23.92;15.65;;;12.10;99.90;;;;;;5113151;28;20071;-39
2021/09/23 02:29:35;;;;;;;25.50;15.93;;;12.10;99.90;;;;;;5113793;28;20112;-39
2021/09/23 02:32:07;;;;;;;25.10;16.17;;;12.00;99.90;;;;;;5113818;28;20035;-38
2021/09/23 02:34:33;;;;;;;25.77;16.45;;;11.90;99.90;;;;;;5112831;28;20019;-35
2021/09/23 02:36:59;;;;;;;34.33;18.27;;;12.00;99.90;;;;;;5114069;28;20027;-36
2021/09/23 02:39:28;;;;;;;24.90;16.35;;;11.90;99.90;;;;;;5113316;28;20020;-40
2021/09/23 02:41:59;;;;;;;27.40;17.80;;;11.90;99.90;;;;;;5112977;28;20027;-39
2021/09/23 02:44:25;;;;;;;28.20;17.67;;;11.90;99.90;;;;;;5113055;28;20094;-40
2021/09/23 02:46:51;;;;;;;29.17;17.70;;;11.90;99.90;;;;;;5113470;28;20160;-40
2021/09/23 02:49:16;;;;;;;26.45;16.42;;;11.90;99.90;;;;;;5112895;28;20105;-38
2021/09/23 02:51:42;;;;;;;27.25;16.98;;;11.80;99.90;;;;;;5113072;28;20173;-38
2021/09/23 02:54:07;;;;;;;29.75;17.55;;;11.80;99.90;;;;;;5113548;28;20084;-40
2021/09/23 02:56:33;;;;;;;26.95;17.67;;;11.80;99.90;;;;;;5112346;28;20394;-39
2021/09/23 02:59:01;;;;;;;26.77;17.02;;;11.80;99.90;;;;;;5113408;28;20015;-40
2021/09/23 03:01:30;;;;;;;27.33;17.88;;;11.80;99.90;;;;;;5112596;28;20034;-40
2021/09/23 03:03:56;;;;;;;27.83;17.60;;;11.80;99.90;;;;;;5112994;28;20035;-40
2021/09/23 03:06:21;;;;;;;28.67;16.98;;;11.70;99.90;;;;;;5112804;28;20032;-34
2021/09/23 03:08:47;;;;;;;26.45;17.30;;;11.70;99.90;;;;;;5112803;28;20072;-39
2021/09/23 03:11:12;;;;;;;27.20;17.83;;;11.70;99.90;;;;;;5112949;28;20522;-36
2021/09/23 03:13:38;;;;;;;27.77;16.90;;;11.60;99.90;;;;;;5112435;28;20012;-36
2021/09/23 03:16:07;;;;;;;30.42;19.48;;;11.60;99.90;;;;;;5112235;28;20039;-40
2021/09/23 03:18:33;;;;;;;25.77;17.13;;;11.70;99.90;;;;;;5112776;28;20106;-37
2021/09/23 03:20:58;;;;;;;24.55;17.10;;;11.70;99.90;;;;;;5112914;28;20099;-39
2021/09/23 03:23:29;;;;;;;23.20;15.55;;;11.70;99.90;;;;;;5110765;28;20062;-36
2021/09/23 03:25:58;;;;;;;24.75;16.77;;;11.70;99.90;;;;;;5113161;28;20031;-38
2021/09/23 03:28:24;;;;;;;25.08;17.02;;;11.70;99.90;;;;;;5111969;28;20012;-38
2021/09/23 03:30:49;;;;;;;25.25;16.90;;;11.70;99.90;;;;;;5112828;28;20036;-37
2021/09/23 03:33:15;;;;;;;23.63;15.48;;;11.70;99.90;;;;;;5111969;28;20635;-40
2021/09/23 03:35:40;;;;;;;26.10;16.60;;;11.70;99.90;;;;;;5112279;28;20023;-33
2021/09/23 03:38:09;;;;;;;24.27;17.02;;;11.70;99.90;;;;;;5111937;28;20432;-36
2021/09/23 03:40:35;;;;;;;29.20;18.38;;;11.70;99.90;;;;;;5112355;28;20020;-39
2021/09/23 03:43:01;;;;;;;28.67;19.00;;;11.70;99.90;;;;;;5112414;28;20102;-39
2021/09/23 03:45:26;;;;;;;31.50;20.10;;;11.70;99.90;;;;;;5110865;28;20106;-39
2021/09/23 03:47:52;;;;;;;30.38;19.77;;;11.70;99.90;;;;;;5112857;28;20051;-39
2021/09/23 03:50:21;;;;;;;27.35;18.45;;;11.70;99.90;;;;;;5111575;28;20106;-35
2021/09/23 03:52:47;;;;;;;25.63;17.42;;;11.60;99.90;;;;;;5111962;28;20436;-38
2021/09/23 03:55:15;;;;;;;26.13;17.77;;;11.70;99.90;;;;;;5112575;28;20024;-38
2021/09/23 03:57:42;;;;;;;31.17;18.33;;;11.70;99.90;;;;;;5111589;28;20039;-39
2021/09/23 04:00:11;;;;;;;26.52;18.42;;;11.70;99.90;;;;;;5111424;28;20371;-37
2021/09/23 04:02:36;;;;;;;26.70;17.30;;;11.70;99.90;;;;;;5111543;28;20382;-38
2021/09/23 04:05:02;;;;;;;28.20;18.63;;;11.60;99.90;;;;;;5112281;28;20020;-40
2021/09/23 04:07:29;;;;;;;26.42;17.58;;;11.60;99.90;;;;;;5111444;28;20126;-40
2021/09/23 04:09:57;;;;;;;26.83;17.52;;;11.60;99.90;;;;;;5111886;28;20152;-35
2021/09/23 04:12:22;;;;;;;27.77;17.88;;;11.50;99.90;;;;;;5110620;28;20360;-39
2021/09/23 04:14:48;;;;;;;26.92;17.45;;;11.60;99.90;;;;;;5112249;28;20455;-39
2021/09/23 04:17:13;;;;;;;26.65;18.15;;;11.50;99.90;;;;;;5111239;28;20054;-36
2021/09/23 04:19:39;;;;;;;26.80;17.45;;;11.50;99.90;;;;;;5111330;28;20027;-39
2021/09/23 04:22:05;;;;;;;28.10;18.15;;;11.50;99.90;;;;;;5111362;28;20047;-34
2021/09/23 04:24:30;;;;;;;28.92;18.25;;;11.40;99.90;;;;;;5111226;28;20442;-39
2021/09/23 04:26:56;;;;;;;29.80;17.83;;;11.40;99.90;;;;;;5111076;28;20028;-37
2021/09/23 04:29:22;;;;;;;24.42;16.98;;;11.40;99.90;;;;;;5111181;28;20378;-37
2021/09/23 04:31:47;;;;;;;24.45;15.40;;;11.40;99.90;;;;;;5111182;28;20150;-36
2021/09/23 04:34:13;;;;;;;30.00;18.17;;;11.40;99.90;;;;;;5111325;28;20077;-37
2021/09/23 04:36:38;;;;;;;27.08;18.38;;;11.30;99.90;;;;;;5110751;28;20074;-39
2021/09/23 04:39:05;;;;;;;27.10;17.67;;;11.30;99.90;;;;;;5110402;28;20479;-35
2021/09/23 04:41:30;;;;;;;29.52;17.13;;;11.30;99.90;;;;;;5109782;28;20015;-34
2021/09/23 04:43:56;;;;;;;28.20;18.52;;;11.30;99.90;;;;;;5110745;28;20106;-40
2021/09/23 04:46:22;;;;;;;28.95;19.13;;;11.30;99.90;;;;;;5110163;28;20537;-36
2021/09/23 04:48:49;;;;;;;30.23;19.88;;;11.30;99.90;;;;;;5110679;28;20485;-36
2021/09/23 04:51:15;;;;;;;27.25;19.10;;;11.30;99.90;;;;;;5111113;28;20084;-39
2021/09/23 04:53:40;;;;;;;29.92;20.38;;;11.30;99.90;;;;;;5110821;28;20530;-36
2021/09/23 04:56:06;;;;;;;27.63;19.00;;;11.30;99.90;;;;;;5110198;28;20030;-37
2021/09/23 04:58:31;;;;;;;32.08;19.52;;;11.30;99.90;;;;;;5110533;28;20023;-38
2021/09/23 05:00:57;;;;;;;24.83;18.95;;;11.30;99.90;;;;;;5110725;28;20542;-37
2021/09/23 05:03:25;;;;;;;30.23;19.05;;;11.30;99.90;;;;;;5109909;28;20028;-38
2021/09/23 05:05:50;;;;;;;29.13;20.27;;;11.20;99.90;;;;;;5110909;28;20035;-39
2021/09/23 05:08:19;;;;;;;28.33;19.52;;;11.30;99.90;;;;;;5110267;28;20027;-39
2021/09/23 05:10:45;;;;;;;30.63;19.92;;;11.30;99.90;;;;;;5109998;28;20035;-38
2021/09/23 05:13:13;;;;;;;31.63;19.35;;;11.30;99.90;;;;;;5110408;28;20034;-38
2021/09/23 05:15:42;;;;;;;27.05;19.77;;;11.30;99.90;;;;;;5109991;28;20043;-39
2021/09/23 05:18:08;;;;;;;28.23;19.63;;;11.30;99.90;;;;;;5110836;28;20058;-35
2021/09/23 05:20:34;;;;;;;31.85;19.88;;;11.20;99.90;;;;;;5110088;28;20051;-36
2021/09/23 05:22:59;;;;;;;28.05;20.08;;;11.20;99.90;;;;;;5109238;28;20028;-40
2021/09/23 05:25:28;;;;;;;29.05;19.15;;;11.20;99.90;;;;;;5110177;28;20016;-37
2021/09/23 05:27:55;;;;;;;25.38;18.08;;;11.10;99.90;;;;;;5110679;28;20026;-38
2021/09/23 05:30:21;;;;;;;29.10;18.40;;;11.10;99.90;;;;;;5109361;28;20012;-38
2021/09/23 05:32:46;;;;;;;27.05;19.55;;;11.10;99.90;;;;;;5110098;28;20493;-36
2021/09/23 05:35:17;;;;;;;28.13;19.55;;;11.10;99.90;;;;;;5110170;28;20366;-36
2021/09/23 05:37:42;;;;;;;26.83;19.30;;;11.10;99.90;;;;;;5109587;28;20049;-38
2021/09/23 05:40:09;;;;;;;29.05;19.75;;;11.10;99.90;;;;;;5110389;28;20095;-36
2021/09/23 05:42:35;;;;;;;28.02;18.70;;;11.10;99.90;;;;;;5110118;28;20023;-34
2021/09/23 05:45:02;;;;;;;26.05;17.85;;;11.10;99.90;;;;;;5109462;28;20019;-33
2021/09/23 05:47:28;;;;;;;27.38;20.20;;;11.10;99.90;;;;;;5109009;28;20016;-38
2021/09/23 05:49:54;;;;;;;27.73;20.63;;;11.10;99.90;;;;;;5110230;28;20033;-38
2021/09/23 05:52:20;;;;;;;28.35;20.75;;;11.10;99.90;;;;;;5084693;28;20036;-38
2021/09/23 05:54:46;;;;;;;30.70;20.90;;;11.20;99.90;;;;;;5105246;28;20034;-39
2021/09/23 05:57:12;;;;;;;26.45;19.40;;;11.20;99.90;;;;;;5088827;28;20024;-38
2021/09/23 05:59:38;;;;;;;22.40;17.27;;;11.20;99.90;;;;;;5104613;28;20426;-37
2021/09/23 06:02:06;;;;;;;31.33;21.63;;;11.30;99.90;;;;;;5106454;28;20103;-36
2021/09/23 06:04:32;;;;;;;34.75;23.30;;;11.30;99.90;;;;;;5108267;28;20051;-37
2021/09/23 06:06:57;;;;;;;35.70;23.52;;;11.30;99.90;;;;;;5108474;28;20047;-39
2021/09/23 06:09:26;;;;;;;35.78;24.70;;;11.30;99.90;;;;;;5108763;28;20039;-37
2021/09/23 06:11:52;;;;;;;32.08;23.45;;;11.40;99.90;;;;;;5108053;28;20028;-34
2021/09/23 06:14:18;;;;;;;30.20;22.95;;;11.40;99.90;;;;;;5109054;28;20004;-37
2021/09/23 06:16:43;;;;;;;31.10;23.73;;;11.40;99.90;;;;;;5108526;28;20051;-41
2021/09/23 06:19:09;;;;;;;30.67;23.35;;;11.50;99.90;;;;;;5108267;28;20370;-41
2021/09/23 06:21:34;;;;;;;31.27;23.02;;;11.50;99.90;;;;;;5108467;28;20024;-40
2021/09/23 06:24:00;;;;;;;29.63;22.67;;;11.60;99.90;;;;;;5101767;28;20358;-41
2021/09/23 06:26:26;;;;;;;28.05;21.30;;;11.60;99.90;;;;;;5108288;28;20032;-35
2021/09/23 06:28:51;;;;;;;29.35;22.02;;;11.60;99.90;;;;;;5110070;28;20027;-41
2021/09/23 06:31:17;;;;;;;29.20;21.67;;;11.70;99.90;;;;;;5094718;28;20036;-38
2021/09/23 06:33:44;;;;;;;27.65;19.92;;;11.70;99.90;;;;;;5079213;28;20378;-38
2021/09/23 06:36:12;;;;;;;25.90;19.30;;;11.80;99.90;;;;;;5107004;28;20028;-36
2021/09/23 06:38:38;;;;;;;31.38;21.13;;;11.90;99.90;;;;;;5109182;28;20027;-40
2021/09/23 06:41:03;;;;;;;28.25;20.33;;;11.90;99.90;;;;;;5108187;28;20475;-33
2021/09/23 06:43:29;;;;;;;24.63;19.42;;;12.00;99.90;;;;;;5109293;28;20107;-41
2021/09/23 06:45:54;;;;;;;29.02;20.40;;;12.10;99.90;;;;;;5108333;28;20038;-40
2021/09/23 06:48:20;;;;;;;29.33;22.55;;;12.20;99.90;;;;;;5108638;28;20371;-37
2021/09/23 06:50:45;;;;;;;39.22;26.65;;;12.20;99.90;;;;;;5109317;28;20027;-37
2021/09/23 06:53:14;;;;;;;34.55;24.73;;;12.30;99.90;;;;;;5109743;28;20047;-37
2021/09/23 06:55:40;;;;;;;31.88;23.08;;;12.40;99.90;;;;;;5108652;28;20016;-38
2021/09/23 06:58:05;;;;;;;30.20;23.58;;;12.40;99.90;;;;;;5109846;28;20024;-40
2021/09/23 07:00:31;;;;;;;38.33;26.70;;;12.50;99.90;;;;;;5109134;28;20019;-40
2021/09/23 07:02:56;;;;;;;40.85;27.65;;;12.60;99.90;;;;;;5108621;28;20023;-38
2021/09/23 07:05:25;;;;;;;35.17;25.25;;;12.60;99.90;;;;;;5109419;28;20429;-39
2021/09/23 07:07:50;;;;;;;34.70;24.42;;;12.70;99.90;;;;;;5111712;28;20024;-39
2021/09/23 07:10:16;;;;;;;35.83;25.73;;;12.70;99.90;;;;;;5112522;28;20073;-39
2021/09/23 07:12:41;;;;;;;36.03;26.05;;;12.70;99.90;;;;;;5113047;28;20483;-42
2021/09/23 07:15:07;;;;;;;32.45;24.10;;;12.80;99.90;;;;;;5112878;28;20482;-33
2021/09/23 07:17:33;;;;;;;35.25;26.75;;;12.80;99.90;;;;;;5111544;28;20048;-37
2021/09/23 07:19:58;;;;;;;35.65;26.70;;;12.80;99.90;;;;;;5113830;28;20462;-38
2021/09/23 07:22:24;;;;;;;35.58;25.42;;;12.90;99.90;;;;;;5112117;28;20049;-37
2021/09/23 07:24:50;;;;;;;32.47;24.17;;;12.90;99.90;;;;;;5113030;28;20065;-37
2021/09/23 07:27:16;;;;;;;37.50;27.17;;;13.00;99.90;;;;;;5112935;28;20019;-39
2021/09/23 07:29:44;;;;;;;41.38;29.70;;;13.20;99.90;;;;;;5112359;28;20106;-39
2021/09/23 07:32:11;;;;;;;36.03;27.70;;;13.40;99.90;;;;;;5112719;28;20076;-40
2021/09/23 07:34:40;;;;;;;39.67;29.15;;;13.60;99.90;;;;;;5113244;28;20034;-38
2021/09/23 07:37:05;;;;;;;42.22;30.90;;;13.80;99.90;;;;;;5112055;28;20020;-40
2021/09/23 07:39:35;;;;;;;40.35;28.92;;;13.90;99.90;;;;;;5112859;28;20026;-37
2021/09/23 07:42:01;;;;;;;36.03;26.60;;;14.10;99.90;;;;;;5112673;28;20023;-39
2021/09/23 07:44:26;;;;;;;40.53;30.67;;;14.20;99.90;;;;;;5103102;28;20054;-38
2021/09/23 07:46:54;;;;;;;37.13;28.05;;;14.30;99.90;;;;;;5097214;28;20246;-36
2021/09/23 07:49:20;;;;;;;38.13;28.83;;;14.30;99.90;;;;;;5111773;28;20020;-37
2021/09/23 07:51:46;;;;;;;52.65;35.90;;;14.30;99.90;;;;;;5111339;28;20035;-38
2021/09/23 07:54:12;;;;;;;41.25;30.60;;;14.40;99.90;;;;;;5113041;28;20467;-37
2021/09/23 07:56:40;;;;;;;36.83;28.40;;;14.50;99.90;;;;;;5094245;28;20116;-37
2021/09/23 07:59:06;;;;;;;37.88;29.10;;;14.50;99.90;;;;;;5112025;28;20019;-38
2021/09/23 08:01:32;;;;;;;40.70;29.35;;;14.50;99.90;;;;;;5111845;28;20026;-37
2021/09/23 08:04:01;;;;;;;46.55;33.35;;;14.60;99.90;;;;;;5112303;28;20027;-37
2021/09/23 08:06:26;;;;;;;42.03;29.55;;;14.60;99.90;;;;;;5111512;28;20491;-40
2021/09/23 08:08:52;;;;;;;39.95;30.00;;;14.60;99.90;;;;;;5112378;28;20022;-37
2021/09/23 08:11:18;;;;;;;46.30;30.95;;;14.70;99.90;;;;;;5111622;28;20027;-35
2021/09/23 08:13:44;;;;;;;46.05;32.95;;;14.70;99.90;;;;;;5110692;28;20085;-38
2021/09/23 08:16:09;;;;;;;40.97;31.75;;;14.80;99.90;;;;;;5112422;28;20120;-39
2021/09/23 08:18:35;;;;;;;44.35;33.47;;;14.80;99.90;;;;;;5109662;28;20038;-39
2021/09/23 08:21:00;;;;;;;40.47;30.58;;;14.90;99.90;;;;;;5112039;28;20416;-40
2021/09/23 08:23:26;;;;;;;38.90;29.48;;;14.90;99.90;;;;;;5111652;28;20591;-37
2021/09/23 08:25:52;;;;;;;41.20;30.42;;;15.00;99.90;;;;;;5108798;28;20027;-40
2021/09/23 08:28:27;;;;;;;42.25;31.48;;;15.00;99.90;;;;;;5111391;28;20034;-37
2021/09/23 08:30:55;;;;;;;41.40;29.80;;;15.10;99.90;;;;;;5092012;28;20053;-38
2021/09/23 08:33:23;;;;;;;36.97;27.83;;;15.20;99.90;;;;;;5110921;28;20102;-35
2021/09/23 08:35:49;;;;;;;34.35;26.50;;;15.30;99.90;;;;;;5111851;28;20012;-39
2021/09/23 08:38:18;;;;;;;40.20;29.77;;;15.40;99.90;;;;;;5110848;28;20085;-39
2021/09/23 08:40:44;;;;;;;39.50;29.55;;;15.60;99.90;;;;;;5111140;28;20012;-36
2021/09/23 08:43:10;;;;;;;38.30;27.92;;;15.70;99.90;;;;;;5106322;28;20028;-39
2021/09/23 08:45:35;;;;;;;34.50;25.77;;;15.90;99.90;;;;;;5103005;28;20020;-37
2021/09/23 08:48:01;;;;;;;36.90;27.27;;;16.00;99.90;;;;;;5097236;28;20102;-35
2021/09/23 08:50:27;;;;;;;31.17;24.80;;;16.00;99.90;;;;;;5099422;28;20023;-38
2021/09/23 08:52:53;;;;;;;29.20;23.75;;;16.00;99.90;;;;;;5095822;28;20032;-38
2021/09/23 08:55:27;;;;;;;34.10;24.10;;;16.00;99.90;;;;;;5098279;28;20020;-36
2021/09/23 08:57:55;;;;;;;33.60;25.10;;;16.00;99.90;;;;;;5110848;28;20032;-39
2021/09/23 09:00:22;;;;;;;33.38;24.95;;;16.00;99.90;;;;;;5099168;28;20022;-39
2021/09/23 09:03:04;;;;;;;30.00;23.20;;;16.00;99.90;;;;;;5084085;28;20020;-37
2021/09/23 09:05:30;;;;;;;28.65;23.15;;;16.20;99.90;;;;;;5086161;28;20464;-40
2021/09/23 09:08:01;;;;;;;31.55;24.13;;;16.40;99.90;;;;;;5079889;28;20050;-39
2021/09/23 09:10:31;;;;;;;30.63;21.85;;;16.50;99.90;;;;;;5091078;28;20023;-39
2021/09/23 09:13:04;;;;;;;27.30;20.45;;;16.70;99.90;;;;;;5091209;28;20125;-38
2021/09/23 09:15:42;;;;;;;26.23;20.45;;;16.80;99.90;;;;;;5085416;28;20028;-37
2021/09/23 09:18:18;;;;;;;28.85;20.92;;;16.90;99.90;;;;;;5045653;28;20168;-38
2021/09/23 09:20:54;;;;;;;27.48;20.88;;;17.00;99.90;;;;;;5046006;28;20028;-38
2021/09/23 09:23:22;;;;;;;31.73;20.55;;;17.00;99.90;;;;;;5041166;28;20017;-39
2021/09/23 09:25:47;;;;;;;25.00;18.50;;;17.00;99.90;;;;;;5049686;28;20495;-38
2021/09/23 09:28:15;;;;;;;23.63;18.38;;;17.10;99.90;;;;;;5070511;28;20020;-37
2021/09/23 09:30:44;;;;;;;25.15;17.55;;;17.10;99.90;;;;;;5068396;28;20468;-35
2021/09/23 09:33:10;;;;;;;27.00;18.92;;;17.20;99.90;;;;;;5070533;28;20047;-37
2021/09/23 09:35:36;;;;;;;22.77;18.52;;;17.30;99.90;;;;;;5069068;28;20114;-41
2021/09/23 09:38:17;;;;;;;26.15;19.25;;;17.30;99.90;;;;;;5069423;28;20055;-32
2021/09/23 09:40:43;;;;;;;20.30;14.55;;;17.40;99.90;;;;;;5069513;28;20016;-37
2021/09/23 09:43:11;;;;;;;23.65;15.98;;;17.30;99.90;;;;;;5069652;28;20450;-38
2021/09/23 09:45:37;;;;;;;21.48;15.60;;;17.30;99.90;;;;;;5069203;28;20016;-39
2021/09/23 09:48:03;;;;;;;20.88;16.67;;;17.30;99.90;;;;;;5070760;28;20029;-39
2021/09/23 09:50:30;;;;;;;22.85;17.67;;;17.30;99.90;;;;;;5068550;28;20024;-37
2021/09/23 09:52:59;;;;;;;25.42;17.80;;;17.30;99.90;;;;;;5067502;28;20037;-38
2021/09/23 09:55:30;;;;;;;21.95;16.88;;;17.30;99.90;;;;;;5069744;28;20016;-36
2021/09/23 09:57:56;;;;;;;21.77;16.63;;;17.50;99.90;;;;;;5069193;28;20051;-40
2021/09/23 10:00:29;;;;;;;24.10;17.58;;;17.70;99.90;;;;;;5069372;28;20021;-39
2021/09/23 10:02:55;;;;;;;23.10;15.30;;;17.90;99.90;;;;;;5068737;28;20090;-38
2021/09/23 10:05:22;;;;;;;21.35;17.13;;;18.10;99.90;;;;;;5068115;28;20123;-36
2021/09/23 10:07:51;;;;;;;19.88;15.35;;;18.30;99.90;;;;;;5070132;28;20467;-37
2021/09/23 10:10:19;;;;;;;20.33;14.60;;;18.40;99.90;;;;;;5069365;28;20037;-36
2021/09/23 10:12:47;;;;;;;17.52;13.68;;;18.50;99.90;;;;;;5068856;28;20035;-38
2021/09/23 10:15:17;;;;;;;20.52;14.95;;;18.60;99.90;;;;;;5069742;28;20024;-38
2021/09/23 10:17:45;;;;;;;15.88;13.85;;;18.60;99.90;;;;;;5102192;28;20085;-32
2021/09/23 10:20:13;;;;;;;19.15;14.73;;;18.70;99.90;;;;;;5102339;28;20135;-37
2021/09/23 10:22:39;;;;;;;17.70;14.93;;;18.70;99.90;;;;;;5109685;28;20027;-39
2021/09/23 10:25:09;;;;;;;17.10;14.00;;;18.60;99.90;;;;;;5109202;28;20020;-39
2021/09/23 10:30:21;;;;;;;13.65;11.80;;;18.60;99.90;;;;;;5090016;28;20046;-38
2021/09/23 10:32:47;;;;;;;17.02;11.45;;;18.60;99.90;;;;;;5086294;28;20142;-39
2021/09/23 10:35:14;;;;;;;18.55;13.25;;;18.60;99.90;;;;;;5084532;28;20020;-37
2021/09/23 10:38:16;;;;;;;12.10;10.80;;;18.70;99.90;;;;;;5092170;28;20471;-37
2021/09/23 10:40:42;;;;;;;14.38;10.55;;;18.60;99.90;;;;;;4984366;28;20117;-38
2021/09/23 10:43:15;;;;;;;14.88;11.23;;;18.60;99.90;;;;;;5070492;28;20086;-39
2021/09/23 10:45:42;;;;;;;17.58;10.95;;;18.50;99.90;;;;;;5113177;28;20016;-39
2021/09/23 10:48:08;;;;;;;13.23;10.00;;;18.50;99.90;;;;;;5096327;28;20031;-37
2021/09/23 10:50:36;;;;;;;13.30;9.38;;;18.40;99.90;;;;;;5113198;28;20055;-37
2021/09/23 10:53:07;;;;;;;9.93;7.57;;;18.40;99.90;;;;;;5113392;28;20035;-34
2021/09/23 10:55:37;;;;;;;14.63;8.68;;;18.40;99.90;;;;;;5113421;28;20073;-38
2021/09/23 10:58:04;;;;;;;12.05;8.07;;;18.40;99.90;;;;;;5114063;28;20026;-40
2021/09/23 11:00:33;;;;;;;9.93;7.40;;;18.40;99.90;;;;;;5099209;28;20258;-39
2021/09/23 11:03:03;;;;;;;10.25;6.60;;;18.40;99.90;;;;;;5084079;28;20045;-39
2021/09/23 11:05:30;;;;;;;7.70;5.95;;;18.40;99.90;;;;;;5086189;28;20479;-37
2021/09/23 11:07:59;;;;;;;8.77;6.00;;;18.40;99.90;;;;;;5082525;28;20029;-40
2021/09/23 11:10:26;;;;;;;10.32;5.85;;;18.50;99.90;;;;;;5097453;28;20546;-39
2021/09/23 11:12:57;;;;;;;14.25;6.35;;;18.50;99.90;;;;;;5113968;28;20031;-39
2021/09/23 11:15:31;;;;;;;8.33;5.40;;;18.50;99.90;;;;;;5112326;28;20031;-39
2021/09/23 11:18:00;;;;;;;8.05;5.43;;;18.50;99.90;;;;;;5113678;28;20055;-39
2021/09/23 11:20:30;;;;;;;6.97;5.00;;;18.50;99.90;;;;;;5111659;28;20537;-38
2021/09/23 11:22:58;;;;;;;7.25;5.25;;;18.50;99.90;;;;;;5113039;28;20065;-36
2021/09/23 11:25:51;;;;;;;5.63;4.47;;;18.50;99.90;;;;;;5111681;28;20019;-37
2021/09/23 11:28:19;;;;;;;8.90;4.80;;;18.60;99.90;;;;;;5072489;28;20028;-37
2021/09/23 11:30:44;;;;;;;8.70;4.20;;;18.60;99.90;;;;;;5106112;28;20411;-35
2021/09/23 11:33:11;;;;;;;5.15;3.70;;;18.70;99.90;;;;;;5076722;28;20028;-39
2021/09/23 11:35:42;;;;;;;6.85;3.88;;;18.80;99.90;;;;;;5089851;28;20013;-36
2021/09/23 11:38:10;;;;;;;9.18;4.10;;;18.80;99.90;;;;;;5092276;28;20365;-36
2021/09/23 11:40:40;;;;;;;6.80;3.42;;;18.90;99.90;;;;;;5103154;28;20036;-38
2021/09/23 11:43:09;;;;;;;8.88;3.95;;;19.00;99.90;;;;;;5090155;28;20028;-39
2021/09/23 11:45:39;;;;;;;7.10;3.80;;;19.10;99.90;;;;;;5094190;28;20054;-35
2021/09/23 11:48:14;;;;;;;7.50;3.58;;;19.10;99.90;;;;;;5113152;28;20074;-37
2021/09/23 11:51:09;;;;;;;8.07;3.67;;;19.20;99.90;;;;;;5111556;28;20048;-36
2021/09/23 11:53:38;;;;;;;6.93;3.67;;;19.30;99.90;;;;;;5101030;28;20044;-40
2021/09/23 11:56:17;;;;;;;4.72;3.22;;;19.30;99.90;;;;;;5099440;28;20028;-40
2021/09/23 11:58:48;;;;;;;9.30;4.63;;;19.40;99.90;;;;;;5106895;28;20030;-38
2021/09/23 12:01:14;;;;;;;7.68;4.10;;;19.40;99.40;;;;;;5109396;28;20750;-41
2021/09/23 12:03:42;;;;;;;5.97;4.03;;;19.50;99.60;;;;;;5088346;28;20047;-38
2021/09/23 12:06:12;;;;;;;7.75;4.40;;;19.70;99.70;;;;;;5091540;28;20031;-35
2021/09/23 12:08:38;;;;;;;9.00;4.72;;;19.70;99.30;;;;;;5103441;28;20023;-36
2021/09/23 12:11:07;;;;;;;7.90;4.45;;;19.90;99.00;;;;;;5111709;28;20039;-35
2021/09/23 12:13:42;;;;;;;7.40;4.28;;;19.90;98.60;;;;;;5111852;28;20084;-38
2021/09/23 12:16:20;;;;;;;5.53;4.03;;;19.90;98.50;;;;;;5111574;28;20047;-39
2021/09/23 12:18:47;;;;;;;8.05;3.80;;;20.00;98.10;;;;;;5112277;28;20038;-37
2021/09/23 12:21:19;;;;;;;6.85;3.47;;;20.00;98.30;;;;;;5110615;28;20045;-39
2021/09/23 12:23:46;;;;;;;9.23;3.97;;;20.10;98.40;;;;;;5095480;28;20493;-41
2021/09/23 12:26:23;;;;;;;6.40;3.05;;;20.20;98.50;;;;;;5111687;28;20756;-40
2021/09/23 12:29:02;;;;;;;13.82;7.72;;;20.20;98.00;;;;;;5091112;28;20031;-39
2021/09/23 12:31:43;;;;;;;9.55;4.60;;;20.30;97.80;;;;;;5110948;28;20019;-35
2021/09/23 12:34:09;;;;;;;6.90;3.75;;;20.30;98.10;;;;;;5111697;28;20074;-37
2021/09/23 12:36:44;;;;;;;6.93;4.20;;;20.40;98.30;;;;;;5105781;28;20024;-39